createdAt,value
2023-06-28T00:00:51.186Z,37.23
2023-06-28T00:01:51.262Z,37.14
2023-06-28T00:02:51.231Z,37.08
2023-06-28T00:03:51.270Z,37.09
2023-06-28T00:04:51.234Z,36.97
2023-06-28T00:05:51.240Z,36.87
2023-06-28T00:06:51.297Z,36.82
2023-06-28T00:07:51.255Z,36.79
2023-06-28T00:08:51.290Z,36.67
2023-06-28T00:09:51.297Z,36.55
2023-06-28T00:10:51.328Z,36.40
2023-06-28T00:11:51.320Z,36.28
2023-06-28T00:12:51.317Z,36.20
2023-06-28T00:13:51.360Z,36.11
2023-06-28T00:14:51.339Z,36.06
2023-06-28T00:15:51.393Z,36.02
2023-06-28T00:16:51.464Z,35.97
2023-06-28T00:17:51.572Z,35.90
2023-06-28T00:18:51.584Z,35.95
2023-06-28T00:19:51.642Z,35.94
2023-06-28T00:20:51.716Z,35.94
2023-06-28T00:21:51.786Z,35.88
2023-06-28T00:22:51.858Z,35.76
2023-06-28T00:23:51.921Z,35.70
2023-06-28T00:24:51.982Z,35.64
2023-06-28T00:25:52.045Z,35.60
2023-06-28T00:26:52.110Z,35.57
2023-06-28T00:27:52.156Z,35.60
2023-06-28T00:28:52.219Z,35.56
2023-06-28T00:29:52.319Z,35.55
2023-06-28T00:30:52.364Z,35.48
2023-06-28T00:31:52.429Z,35.42
2023-06-28T00:32:52.574Z,35.45
2023-06-28T00:33:52.534Z,35.41
2023-06-28T00:34:52.608Z,35.38
2023-06-28T00:35:52.684Z,35.40
2023-06-28T00:36:52.756Z,35.39
2023-06-28T00:37:52.815Z,35.38
2023-06-28T00:38:52.884Z,35.37
2023-06-28T00:39:52.955Z,35.20
2023-06-28T00:40:53.009Z,35.25
2023-06-28T00:41:53.108Z,35.16
2023-06-28T00:42:53.153Z,35.15
2023-06-28T00:43:53.228Z,35.04
2023-06-28T00:44:53.287Z,35.08
2023-06-28T00:45:53.385Z,35.20
2023-06-28T00:46:53.424Z,35.19
2023-06-28T00:47:53.531Z,35.09
2023-06-28T00:48:53.564Z,35.06
2023-06-28T00:49:53.625Z,35.08
2023-06-28T00:50:53.722Z,35.11
2023-06-28T00:51:53.775Z,35.11
2023-06-28T00:52:53.828Z,35.12
2023-06-28T00:53:53.912Z,35.07
2023-06-28T00:54:53.968Z,35.04
2023-06-28T00:55:54.018Z,35.05
2023-06-28T00:56:54.154Z,35.10
2023-06-28T00:57:54.151Z,35.10
2023-06-28T00:58:54.235Z,35.03
2023-06-28T00:59:54.279Z,34.95
2023-06-28T01:00:54.354Z,34.94
2023-06-28T01:01:54.426Z,34.92
2023-06-28T01:02:54.490Z,34.95
2023-06-28T01:03:54.616Z,34.96
2023-06-28T01:04:54.620Z,34.86
2023-06-28T01:05:54.683Z,34.91
2023-06-28T01:06:54.858Z,35.06
2023-06-28T01:07:54.806Z,34.93
2023-06-28T01:08:54.862Z,34.87
2023-06-28T01:09:54.917Z,34.92
2023-06-28T01:10:54.984Z,34.94
2023-06-28T01:11:55.053Z,35.05
2023-06-28T01:12:55.127Z,35.18
2023-06-28T01:13:55.196Z,35.08
2023-06-28T01:14:55.271Z,34.98
2023-06-28T01:15:55.342Z,34.96
2023-06-28T01:16:55.409Z,34.97
2023-06-28T01:17:55.557Z,34.97
2023-06-28T01:18:55.576Z,35.01
2023-06-28T01:19:55.643Z,35.00
2023-06-28T01:20:55.810Z,35.00
2023-06-28T01:21:55.768Z,34.97
2023-06-28T01:22:55.857Z,34.99
2023-06-28T01:23:55.894Z,34.99
2023-06-28T01:24:55.961Z,35.01
2023-06-28T01:25:56.030Z,35.05
2023-06-28T01:26:56.108Z,35.04
2023-06-28T01:27:56.158Z,35.05
2023-06-28T01:28:56.221Z,35.09
2023-06-28T01:29:56.291Z,35.06
2023-06-28T01:30:56.364Z,35.14
2023-06-28T01:31:56.445Z,35.20
2023-06-28T01:32:56.594Z,35.26
2023-06-28T01:33:56.783Z,35.30
2023-06-28T01:34:56.625Z,35.26
2023-06-28T01:35:56.685Z,35.23
2023-06-28T01:36:56.752Z,35.25
2023-06-28T01:37:56.865Z,35.24
2023-06-28T01:38:56.893Z,35.23
2023-06-28T01:39:56.974Z,35.22
2023-06-28T01:40:57.041Z,35.18
2023-06-28T01:41:57.086Z,35.16
2023-06-28T01:42:57.168Z,35.15
2023-06-28T01:43:57.239Z,35.16
2023-06-28T01:44:57.310Z,35.21
2023-06-28T01:45:57.393Z,35.22
2023-06-28T01:46:57.445Z,35.22
2023-06-28T01:47:57.552Z,35.23
2023-06-28T01:48:57.595Z,35.24
2023-06-28T01:49:57.683Z,35.25
2023-06-28T01:50:57.751Z,35.23
2023-06-28T01:51:57.818Z,35.25
2023-06-28T01:52:57.884Z,35.27
2023-06-28T01:53:57.948Z,35.26
2023-06-28T01:54:58.009Z,35.26
2023-06-28T01:55:58.076Z,35.27
2023-06-28T01:56:58.142Z,35.27
2023-06-28T01:57:58.212Z,35.29
2023-06-28T01:58:58.280Z,35.35
2023-06-28T01:59:58.344Z,35.36
2023-06-28T02:00:58.446Z,35.32
2023-06-28T02:01:58.484Z,35.30
2023-06-28T02:02:58.647Z,35.30
2023-06-28T02:03:58.788Z,35.33
2023-06-28T02:04:58.686Z,35.35
2023-06-28T02:05:58.773Z,35.34
2023-06-28T02:06:58.922Z,35.37
2023-06-28T02:07:58.883Z,35.39
2023-06-28T02:08:58.954Z,35.39
2023-06-28T02:09:59.031Z,35.39
2023-06-28T02:10:59.081Z,35.39
2023-06-28T02:11:59.158Z,35.42
2023-06-28T02:12:59.216Z,35.42
2023-06-28T02:13:59.295Z,35.44
2023-06-28T02:14:59.379Z,35.43
2023-06-28T02:15:59.440Z,35.41
2023-06-28T02:16:59.503Z,35.41
2023-06-28T02:17:59.875Z,35.41
2023-06-28T02:18:59.642Z,35.44
2023-06-28T02:19:59.718Z,35.44
2023-06-28T02:20:59.774Z,35.43
2023-06-28T02:21:59.871Z,35.43
2023-06-28T02:22:59.922Z,35.43
2023-06-28T02:23:59.981Z,35.36
2023-06-28T02:25:00.070Z,35.34
2023-06-28T02:26:00.135Z,35.36
2023-06-28T02:27:00.237Z,35.38
2023-06-28T02:28:00.306Z,35.41
2023-06-28T02:29:00.357Z,35.41
2023-06-28T02:30:00.446Z,35.41
2023-06-28T02:31:00.573Z,35.44
2023-06-28T02:32:00.721Z,35.42
2023-06-28T02:33:00.735Z,35.44
2023-06-28T02:34:00.712Z,35.43
2023-06-28T02:35:00.790Z,35.47
2023-06-28T02:36:00.859Z,35.45
2023-06-28T02:37:00.921Z,35.46
2023-06-28T02:38:01.022Z,35.40
2023-06-28T02:39:01.060Z,35.39
2023-06-28T02:40:01.122Z,35.45
2023-06-28T02:41:01.187Z,35.43
2023-06-28T02:42:01.375Z,35.44
2023-06-28T02:43:01.390Z,35.45
2023-06-28T02:44:01.379Z,35.40
2023-06-28T02:45:01.462Z,35.38
2023-06-28T02:46:01.505Z,35.39
2023-06-28T02:47:01.613Z,35.40
2023-06-28T02:48:01.648Z,35.38
2023-06-28T02:49:01.706Z,35.37
2023-06-28T02:50:01.780Z,35.34
2023-06-28T02:51:01.876Z,35.38
2023-06-28T02:52:01.929Z,35.35
2023-06-28T02:53:02.027Z,35.37
2023-06-28T02:54:02.085Z,35.36
2023-06-28T02:55:02.189Z,35.36
2023-06-28T02:56:02.217Z,35.39
2023-06-28T02:57:02.286Z,35.41
2023-06-28T02:58:02.358Z,35.40
2023-06-28T02:59:02.420Z,35.37
2023-06-28T03:00:02.482Z,35.37
2023-06-28T03:01:02.583Z,35.42
2023-06-28T03:02:02.625Z,35.44
2023-06-28T03:03:02.852Z,35.45
2023-06-28T03:04:02.855Z,35.40
2023-06-28T03:05:02.857Z,35.41
2023-06-28T03:06:03.067Z,35.40
2023-06-28T03:07:03.128Z,35.39
2023-06-28T03:08:03.077Z,35.39
2023-06-28T03:09:03.144Z,35.41
2023-06-28T03:10:03.250Z,35.42
2023-06-28T03:11:03.310Z,35.44
2023-06-28T03:12:03.382Z,35.45
2023-06-28T03:13:03.454Z,35.44
2023-06-28T03:14:03.521Z,35.43
2023-06-28T03:15:04.224Z,35.42
2023-06-28T03:16:03.720Z,35.44
2023-06-28T03:17:03.716Z,35.43
2023-06-28T03:18:03.862Z,35.43
2023-06-28T03:19:03.827Z,35.40
2023-06-28T03:20:03.891Z,35.43
2023-06-28T03:21:03.943Z,35.43
2023-06-28T03:22:04.003Z,35.42
2023-06-28T03:23:04.050Z,35.47
2023-06-28T03:24:04.121Z,35.47
2023-06-28T03:25:04.181Z,35.44
2023-06-28T03:26:04.243Z,35.42
2023-06-28T03:27:04.284Z,35.44
2023-06-28T03:28:04.355Z,35.40
2023-06-28T03:29:04.425Z,35.40
2023-06-28T03:30:04.476Z,35.44
2023-06-28T03:31:04.544Z,35.41
2023-06-28T03:32:04.610Z,35.44
2023-06-28T03:33:04.657Z,35.48
2023-06-28T03:34:04.683Z,35.46
2023-06-28T03:35:04.747Z,35.49
2023-06-28T03:36:04.804Z,35.46
2023-06-28T03:37:05.500Z,35.45
2023-06-28T03:38:04.996Z,35.47
2023-06-28T03:39:04.963Z,35.44
2023-06-28T03:40:05.008Z,35.46
2023-06-28T03:41:05.089Z,35.47
2023-06-28T03:42:05.148Z,35.47
2023-06-28T03:43:05.172Z,35.46
2023-06-28T03:44:06.048Z,35.44
2023-06-28T03:45:05.215Z,35.44
2023-06-28T03:46:05.263Z,35.46
2023-06-28T03:47:05.241Z,35.46
2023-06-28T03:48:05.244Z,35.47
2023-06-28T03:49:05.258Z,35.48
2023-06-28T03:50:05.348Z,35.48
2023-06-28T03:51:05.279Z,35.48
2023-06-28T03:52:05.297Z,35.50
2023-06-28T03:53:05.308Z,35.53
2023-06-28T03:54:05.312Z,35.49
2023-06-28T03:55:05.325Z,35.47
2023-06-28T03:56:05.331Z,35.50
2023-06-28T03:57:05.343Z,35.52
2023-06-28T03:58:05.407Z,35.53
2023-06-28T03:59:05.398Z,35.51
2023-06-28T04:00:05.408Z,35.51
2023-06-28T04:01:05.410Z,35.51
2023-06-28T04:02:05.454Z,35.51
2023-06-28T04:03:05.475Z,35.50
2023-06-28T04:04:05.510Z,35.50
2023-06-28T04:05:05.457Z,35.52
2023-06-28T04:06:05.466Z,35.51
2023-06-28T04:07:05.498Z,35.53
2023-06-28T04:08:05.490Z,35.53
2023-06-28T04:09:05.524Z,35.53
2023-06-28T04:10:05.528Z,35.50
2023-06-28T04:11:05.539Z,35.51
2023-06-28T04:12:05.552Z,35.53
2023-06-28T04:13:05.560Z,35.52
2023-06-28T04:14:05.638Z,35.53
2023-06-28T04:15:05.666Z,35.53
2023-06-28T04:16:05.741Z,35.51
2023-06-28T04:17:05.790Z,35.53
2023-06-28T04:18:05.848Z,35.56
2023-06-28T04:19:05.923Z,35.53
2023-06-28T04:20:05.972Z,35.54
2023-06-28T04:21:06.038Z,35.58
2023-06-28T04:22:06.125Z,35.54
2023-06-28T04:23:06.194Z,35.55
2023-06-28T04:24:06.201Z,35.56
2023-06-28T04:25:06.241Z,35.57
2023-06-28T04:26:06.280Z,35.57
2023-06-28T04:27:06.313Z,35.59
2023-06-28T04:28:06.358Z,35.55
2023-06-28T04:29:06.422Z,35.56
2023-06-28T04:30:06.509Z,35.58
2023-06-28T04:31:06.637Z,35.57
2023-06-28T04:32:06.651Z,35.58
2023-06-28T04:33:06.792Z,35.58
2023-06-28T04:34:06.793Z,35.57
2023-06-28T04:35:06.908Z,35.59
2023-06-28T04:36:06.947Z,35.56
2023-06-28T04:37:15.304Z,35.57
2023-06-28T04:38:07.011Z,35.58
2023-06-28T04:39:07.021Z,35.60
2023-06-28T04:40:07.053Z,35.59
2023-06-28T04:41:07.375Z,35.57
2023-06-28T04:42:07.059Z,35.59
2023-06-28T04:43:07.081Z,35.57
2023-06-28T04:44:07.090Z,35.58
2023-06-28T04:45:07.115Z,35.53
2023-06-28T04:46:07.182Z,35.50
2023-06-28T04:47:07.176Z,35.53
2023-06-28T04:48:07.326Z,35.50
2023-06-28T04:49:08.164Z,35.55
2023-06-28T04:50:07.172Z,35.51
2023-06-28T04:51:07.203Z,35.55
2023-06-28T04:52:07.211Z,35.56
2023-06-28T04:53:07.244Z,35.56
2023-06-28T04:54:07.245Z,35.55
2023-06-28T04:55:07.250Z,35.52
2023-06-28T04:56:07.264Z,35.52
2023-06-28T04:57:07.288Z,35.56
2023-06-28T04:58:07.348Z,35.52
2023-06-28T04:59:07.405Z,35.52
2023-06-28T05:00:07.475Z,35.54
2023-06-28T05:01:07.660Z,35.52
2023-06-28T05:02:07.633Z,35.54
2023-06-28T05:03:07.669Z,35.54
2023-06-28T05:04:07.678Z,35.52
2023-06-28T05:05:07.720Z,35.54
2023-06-28T05:06:07.806Z,35.53
2023-06-28T05:07:07.852Z,35.51
2023-06-28T05:08:07.888Z,35.52
2023-06-28T05:09:07.927Z,35.55
2023-06-28T05:10:08.012Z,35.54
2023-06-28T05:11:08.043Z,35.54
2023-06-28T05:12:08.119Z,35.55
2023-06-28T05:13:08.164Z,35.52
2023-06-28T05:14:08.242Z,35.55
2023-06-28T05:15:08.285Z,35.54
2023-06-28T05:16:08.325Z,35.54
2023-06-28T05:17:08.364Z,35.50
2023-06-28T05:18:08.601Z,35.53
2023-06-28T05:19:08.488Z,35.54
2023-06-28T05:20:08.544Z,35.55
2023-06-28T05:21:08.599Z,35.54
2023-06-28T05:22:08.952Z,35.54
2023-06-28T05:23:08.673Z,35.53
2023-06-28T05:24:08.695Z,35.52
2023-06-28T05:25:08.733Z,35.58
2023-06-28T05:26:08.801Z,35.54
2023-06-28T05:27:08.831Z,35.53
2023-06-28T05:28:08.876Z,35.54
2023-06-28T05:29:08.916Z,35.55
2023-06-28T05:30:08.989Z,35.53
2023-06-28T05:31:09.049Z,35.54
2023-06-28T05:32:09.047Z,35.54
2023-06-28T05:33:09.088Z,35.56
2023-06-28T05:34:09.158Z,35.54
2023-06-28T05:35:09.178Z,35.53
2023-06-28T05:36:09.232Z,35.53
2023-06-28T05:37:09.261Z,35.54
2023-06-28T05:38:09.318Z,35.54
2023-06-28T05:39:12.435Z,35.54
2023-06-28T05:40:09.362Z,35.56
2023-06-28T05:41:09.373Z,35.55
2023-06-28T05:42:09.377Z,35.57
2023-06-28T05:43:09.390Z,35.58
2023-06-28T05:44:09.570Z,35.55
2023-06-28T05:45:09.414Z,35.56
2023-06-28T05:46:10.096Z,35.56
2023-06-28T05:47:09.446Z,35.55
2023-06-28T05:48:09.586Z,35.56
2023-06-28T05:49:10.168Z,35.57
2023-06-28T05:50:09.501Z,35.58
2023-06-28T05:51:09.515Z,36.23
2023-06-28T05:52:09.497Z,36.62
2023-06-28T05:53:09.622Z,36.33
2023-06-28T05:54:10.095Z,36.19
2023-06-28T05:55:09.552Z,36.10
2023-06-28T05:56:09.969Z,36.11
2023-06-28T05:57:09.560Z,36.10
2023-06-28T05:58:09.568Z,36.04
2023-06-28T05:59:09.964Z,36.05
2023-06-28T06:00:09.601Z,36.13
2023-06-28T06:01:09.963Z,36.26
2023-06-28T06:02:09.678Z,36.03
2023-06-28T06:03:09.697Z,36.13
2023-06-28T06:04:09.753Z,36.22
2023-06-28T06:05:09.954Z,36.39
2023-06-28T06:06:10.001Z,36.50
2023-06-28T06:07:09.827Z,36.68
2023-06-28T06:08:09.819Z,36.82
2023-06-28T06:09:09.934Z,36.92
2023-06-28T06:10:09.940Z,37.00
2023-06-28T06:11:10.462Z,37.04
2023-06-28T06:12:10.112Z,37.09
2023-06-28T06:13:10.232Z,37.16
2023-06-28T06:14:10.356Z,37.28
2023-06-28T06:15:10.420Z,37.40
2023-06-28T06:16:10.985Z,37.51
2023-06-28T06:17:10.631Z,37.59
2023-06-28T06:18:10.788Z,37.66
2023-06-28T06:19:12.088Z,37.78
2023-06-28T06:20:10.850Z,37.94
2023-06-28T06:21:10.914Z,38.18
2023-06-28T06:22:11.026Z,38.22
2023-06-28T06:23:11.008Z,38.36
2023-06-28T06:24:11.080Z,38.53
2023-06-28T06:25:11.472Z,38.59
2023-06-28T06:26:11.183Z,38.61
2023-06-28T06:27:11.223Z,38.69
2023-06-28T06:28:11.289Z,38.70
2023-06-28T06:29:11.341Z,38.73
2023-06-28T06:30:11.402Z,38.83
2023-06-28T06:31:11.592Z,38.92
2023-06-28T06:32:11.517Z,38.98
2023-06-28T06:33:12.534Z,39.09
2023-06-28T06:34:11.635Z,39.11
2023-06-28T06:35:11.713Z,39.20
2023-06-28T06:36:11.763Z,39.27
2023-06-28T06:37:11.833Z,39.41
2023-06-28T06:38:12.004Z,39.49
2023-06-28T06:39:11.942Z,39.62
2023-06-28T06:40:12.020Z,39.74
2023-06-28T06:41:12.079Z,39.82
2023-06-28T06:42:12.538Z,39.99
2023-06-28T06:43:12.185Z,40.18
2023-06-28T06:44:12.977Z,40.15
2023-06-28T06:45:12.312Z,40.15
2023-06-28T06:46:12.391Z,40.04
2023-06-28T06:47:12.488Z,40.03
2023-06-28T06:48:12.619Z,40.11
2023-06-28T06:49:12.720Z,40.13
2023-06-28T06:50:12.830Z,40.16
2023-06-28T06:51:12.987Z,40.09
2023-06-28T06:52:13.073Z,40.13
2023-06-28T06:53:13.189Z,40.09
2023-06-28T06:54:13.402Z,40.13
2023-06-28T06:55:13.541Z,40.09
2023-06-28T06:56:13.580Z,40.02
2023-06-28T06:57:13.669Z,39.99
2023-06-28T06:58:13.996Z,40.09
2023-06-28T06:59:13.917Z,40.13
2023-06-28T07:00:14.085Z,40.07
2023-06-28T07:01:14.298Z,40.04
2023-06-28T07:02:14.255Z,39.92
2023-06-28T07:03:14.572Z,39.86
2023-06-28T07:04:14.520Z,39.83
2023-06-28T07:05:14.694Z,39.76
2023-06-28T07:06:14.989Z,39.71
2023-06-28T07:07:14.933Z,39.82
2023-06-28T07:08:15.046Z,40.02
2023-06-28T07:09:15.469Z,40.22
2023-06-28T07:10:15.286Z,40.32
2023-06-28T07:11:15.403Z,40.13
2023-06-28T07:12:15.999Z,40.19
2023-06-28T07:13:15.676Z,40.34
2023-06-28T07:14:16.001Z,40.31
2023-06-28T07:15:15.844Z,40.30
2023-06-28T07:16:15.996Z,40.30
2023-06-28T07:17:16.035Z,40.36
2023-06-28T07:18:16.177Z,40.46
2023-06-28T07:19:16.246Z,40.42
2023-06-28T07:20:16.291Z,40.35
2023-06-28T07:21:16.365Z,40.28
2023-06-28T07:22:16.511Z,40.30
2023-06-28T07:23:16.542Z,40.34
2023-06-28T07:24:16.626Z,40.38
2023-06-28T07:25:16.852Z,40.46
2023-06-28T07:26:16.797Z,40.55
2023-06-28T07:27:16.869Z,40.50
2023-06-28T07:28:16.967Z,40.53
2023-06-28T07:29:17.511Z,40.49
2023-06-28T07:30:17.112Z,40.46
2023-06-28T07:31:17.216Z,40.50
2023-06-28T07:32:17.290Z,40.47
2023-06-28T07:33:17.525Z,40.75
2023-06-28T07:34:17.497Z,40.61
2023-06-28T07:35:17.565Z,40.49
2023-06-28T07:36:17.684Z,40.37
2023-06-28T07:37:17.793Z,41.35
2023-06-28T07:38:17.895Z,40.34
2023-06-28T07:39:17.999Z,40.14
2023-06-28T07:40:18.059Z,39.95
2023-06-28T07:41:18.612Z,39.75
2023-06-28T07:42:18.196Z,39.69
2023-06-28T07:43:18.297Z,39.57
2023-06-28T07:44:18.500Z,39.45
2023-06-28T07:45:18.480Z,39.32
2023-06-28T07:46:18.605Z,39.27
2023-06-28T07:47:18.685Z,39.13
2023-06-28T07:48:18.831Z,39.61
2023-06-28T07:49:19.004Z,39.17
2023-06-28T07:50:19.009Z,38.97
2023-06-28T07:51:19.057Z,38.88
2023-06-28T07:52:19.154Z,38.82
2023-06-28T07:53:19.226Z,38.75
2023-06-28T07:54:32.534Z,38.65
2023-06-28T07:55:19.511Z,38.63
2023-06-28T07:56:19.381Z,38.67
2023-06-28T07:57:19.456Z,38.61
2023-06-28T07:58:19.471Z,38.58
2023-06-28T07:59:19.582Z,38.57
2023-06-28T08:00:20.514Z,38.80
2023-06-28T08:01:19.629Z,38.89
2023-06-28T08:02:19.643Z,38.94
2023-06-28T08:03:19.872Z,38.69
2023-06-28T08:04:19.701Z,39.03
2023-06-28T08:05:19.730Z,39.05
2023-06-28T08:06:20.010Z,39.33
2023-06-28T08:07:19.903Z,39.69
2023-06-28T08:08:19.852Z,39.24
2023-06-28T08:09:19.886Z,38.74
2023-06-28T08:10:19.911Z,38.79
2023-06-28T08:11:19.940Z,38.79
2023-06-28T08:12:20.034Z,38.68
2023-06-28T08:13:20.045Z,38.96
2023-06-28T08:14:20.032Z,38.72
2023-06-28T08:15:20.083Z,38.61
2023-06-28T08:16:20.516Z,38.58
2023-06-28T08:17:20.161Z,38.81
2023-06-28T08:18:20.177Z,38.94
2023-06-28T08:19:20.222Z,38.92
2023-06-28T08:20:20.231Z,38.79
2023-06-28T08:21:20.514Z,38.60
2023-06-28T08:22:20.424Z,38.73
2023-06-28T08:23:20.487Z,38.77
2023-06-28T08:24:20.566Z,38.81
2023-06-28T08:25:21.030Z,38.54
2023-06-28T08:26:20.754Z,38.86
2023-06-28T08:27:20.822Z,38.79
2023-06-28T08:28:20.906Z,38.82
2023-06-28T08:29:21.007Z,38.79
2023-06-28T08:30:21.055Z,38.98
2023-06-28T08:31:21.544Z,38.82
2023-06-28T08:32:21.242Z,38.90
2023-06-28T08:33:21.303Z,38.73
2023-06-28T08:34:21.404Z,38.70
2023-06-28T08:35:21.453Z,38.82
2023-06-28T08:36:22.021Z,38.87
2023-06-28T08:37:21.607Z,38.82
2023-06-28T08:38:21.670Z,38.84
2023-06-28T08:39:21.739Z,39.00
2023-06-28T08:40:21.850Z,38.89
2023-06-28T08:41:21.900Z,38.98
2023-06-28T08:42:21.978Z,39.03
2023-06-28T08:43:22.552Z,38.45
2023-06-28T08:44:22.152Z,38.11
2023-06-28T08:45:22.389Z,37.81
2023-06-28T08:46:22.552Z,37.72
2023-06-28T08:47:22.353Z,37.82
2023-06-28T08:48:29.977Z,37.75
2023-06-28T08:49:22.429Z,37.73
2023-06-28T08:50:22.628Z,37.85
2023-06-28T08:51:22.523Z,37.85
2023-06-28T08:52:22.564Z,37.82
2023-06-28T08:53:22.610Z,37.81
2023-06-28T08:54:22.649Z,37.85
2023-06-28T08:55:22.688Z,37.95
2023-06-28T08:56:22.895Z,38.09
2023-06-28T08:57:22.773Z,38.05
2023-06-28T08:58:22.816Z,38.12
2023-06-28T08:59:22.863Z,38.04
2023-06-28T09:00:22.915Z,38.02
2023-06-28T09:01:23.184Z,37.90
2023-06-28T09:02:23.043Z,37.88
2023-06-28T09:03:23.636Z,37.77
2023-06-28T09:04:23.102Z,37.84
2023-06-28T09:05:23.158Z,37.80
2023-06-28T09:06:23.203Z,37.72
2023-06-28T09:07:23.330Z,37.77
2023-06-28T09:08:23.551Z,37.88
2023-06-28T09:09:23.356Z,38.03
2023-06-28T09:10:23.519Z,38.04
2023-06-28T09:11:23.450Z,37.99
2023-06-28T09:12:23.496Z,37.92
2023-06-28T09:13:23.543Z,37.99
2023-06-28T09:14:23.581Z,37.98
2023-06-28T09:15:23.649Z,38.08
2023-06-28T09:16:24.056Z,38.59
2023-06-28T09:17:24.205Z,38.12
2023-06-28T09:18:23.994Z,38.00
2023-06-28T09:19:24.116Z,38.08
2023-06-28T09:20:24.222Z,38.08
2023-06-28T09:21:24.347Z,38.19
2023-06-28T09:22:24.445Z,38.33
2023-06-28T09:23:24.583Z,38.30
2023-06-28T09:24:24.665Z,38.31
2023-06-28T09:25:24.753Z,38.52
2023-06-28T09:26:24.860Z,38.76
2023-06-28T09:27:24.963Z,38.81
2023-06-28T09:28:25.042Z,38.87
2023-06-28T09:29:25.145Z,38.76
2023-06-28T09:30:25.252Z,38.78
2023-06-28T09:31:25.586Z,38.82
2023-06-28T09:32:24.458Z,38.81
2023-06-28T09:33:25.596Z,38.78
2023-06-28T09:34:25.682Z,39.05
2023-06-28T09:35:25.811Z,38.91
2023-06-28T09:36:25.858Z,38.81
2023-06-28T09:37:25.957Z,38.76
2023-06-28T09:38:26.061Z,38.72
2023-06-28T09:39:26.231Z,38.71
2023-06-28T09:40:26.253Z,38.72
2023-06-28T09:41:26.339Z,38.58
2023-06-28T09:42:26.441Z,38.51
2023-06-28T09:43:26.661Z,38.55
2023-06-28T09:44:27.056Z,38.48
2023-06-28T09:45:28.067Z,38.54
2023-06-28T09:46:27.079Z,38.57
2023-06-28T09:47:27.073Z,38.60
2023-06-28T09:48:27.149Z,38.49
2023-06-28T09:49:27.240Z,38.47
2023-06-28T09:50:27.333Z,38.68
2023-06-28T09:51:27.562Z,38.73
2023-06-28T09:52:27.502Z,38.78
2023-06-28T09:53:27.562Z,38.54
2023-06-28T09:54:28.069Z,38.38
2023-06-28T09:55:27.713Z,38.27
2023-06-28T09:56:28.070Z,38.17
2023-06-28T09:57:28.007Z,38.21
2023-06-28T09:58:28.015Z,38.28
2023-06-28T09:59:34.661Z,38.29
2023-06-28T10:00:28.060Z,38.30
2023-06-28T10:01:28.082Z,38.33
2023-06-28T10:02:28.200Z,38.30
2023-06-28T10:03:28.257Z,38.50
2023-06-28T10:04:28.274Z,38.62
2023-06-28T10:05:28.261Z,38.73
2023-06-28T10:06:28.254Z,38.69
2023-06-28T10:07:28.309Z,38.65
2023-06-28T10:08:28.335Z,38.41
2023-06-28T10:09:28.374Z,38.29
2023-06-28T10:10:28.408Z,38.31
2023-06-28T10:11:28.579Z,38.18
2023-06-28T10:12:28.486Z,38.34
2023-06-28T10:13:28.541Z,38.65
2023-06-28T10:14:28.565Z,38.50
2023-06-28T10:15:28.593Z,38.24
2023-06-28T10:16:29.066Z,38.06
2023-06-28T10:17:28.727Z,37.97
2023-06-28T10:18:29.065Z,37.94
2023-06-28T10:19:28.738Z,37.82
2023-06-28T10:20:28.786Z,37.78
2023-06-28T10:21:28.852Z,37.63
2023-06-28T10:22:28.832Z,37.42
2023-06-28T10:23:28.864Z,37.35
2023-06-28T10:24:28.895Z,37.26
2023-06-28T10:25:28.950Z,37.24
2023-06-28T10:26:28.950Z,37.22
2023-06-28T10:27:28.964Z,37.18
2023-06-28T10:28:29.254Z,37.19
2023-06-28T10:29:29.025Z,37.15
2023-06-28T10:30:29.074Z,37.14
2023-06-28T10:31:29.249Z,37.17
2023-06-28T10:32:29.161Z,37.30
2023-06-28T10:33:29.607Z,37.48
2023-06-28T10:34:29.141Z,37.52
2023-06-28T10:35:29.606Z,37.52
2023-06-28T10:36:29.233Z,37.48
2023-06-28T10:37:29.388Z,37.47
2023-06-28T10:38:29.391Z,37.42
2023-06-28T10:39:29.449Z,37.39
2023-06-28T10:40:29.517Z,37.35
2023-06-28T10:41:29.614Z,37.37
2023-06-28T10:42:29.671Z,37.40
2023-06-28T10:43:29.741Z,37.41
2023-06-28T10:44:30.100Z,37.39
2023-06-28T10:45:29.851Z,37.39
2023-06-28T10:46:30.054Z,37.37
2023-06-28T10:47:30.012Z,37.37
2023-06-28T10:48:30.058Z,37.28
2023-06-28T10:49:30.123Z,37.24
2023-06-28T10:50:30.208Z,37.27
2023-06-28T10:51:30.296Z,37.26
2023-06-28T10:52:30.344Z,37.20
2023-06-28T10:53:30.624Z,37.24
2023-06-28T10:54:30.457Z,37.20
2023-06-28T10:55:30.577Z,37.17
2023-06-28T10:56:30.596Z,37.14
2023-06-28T10:57:31.579Z,37.15
2023-06-28T10:58:30.713Z,37.14
2023-06-28T10:59:30.772Z,37.11
2023-06-28T11:00:30.832Z,37.05
2023-06-28T11:01:30.927Z,37.11
2023-06-28T11:02:30.975Z,37.11
2023-06-28T11:03:31.008Z,37.11
2023-06-28T11:04:31.077Z,37.10
2023-06-28T11:05:31.205Z,37.07
2023-06-28T11:06:31.180Z,37.09
2023-06-28T11:07:31.524Z,37.07
2023-06-28T11:08:31.302Z,37.06
2023-06-28T11:09:31.432Z,37.00
2023-06-28T11:10:31.418Z,37.05
2023-06-28T11:11:31.477Z,37.06
2023-06-28T11:12:31.537Z,37.06
2023-06-28T11:13:31.594Z,37.01
2023-06-28T11:14:31.648Z,37.02
2023-06-28T11:15:31.693Z,36.98
2023-06-28T11:16:31.773Z,36.98
2023-06-28T11:17:32.115Z,36.96
2023-06-28T11:18:31.880Z,36.94
2023-06-28T11:19:31.930Z,36.95
2023-06-28T11:20:31.984Z,36.96
2023-06-28T11:21:32.152Z,36.96
2023-06-28T11:22:32.162Z,36.91
2023-06-28T11:23:32.164Z,36.92
2023-06-28T11:24:32.793Z,36.89
2023-06-28T11:25:32.317Z,36.88
2023-06-28T11:26:32.338Z,36.78
2023-06-28T11:27:32.369Z,36.75
2023-06-28T11:28:32.419Z,36.78
2023-06-28T11:29:32.476Z,36.70
2023-06-28T11:30:32.575Z,36.70
2023-06-28T11:31:32.631Z,36.68
2023-06-28T11:32:32.799Z,36.68
2023-06-28T11:33:32.702Z,36.71
2023-06-28T11:34:32.770Z,36.68
2023-06-28T11:35:32.805Z,36.68
2023-06-28T11:36:32.870Z,36.74
2023-06-28T11:37:32.923Z,36.66
2023-06-28T11:38:32.968Z,36.69
2023-06-28T11:39:33.022Z,36.69
2023-06-28T11:40:33.076Z,36.70
2023-06-28T11:41:33.151Z,36.70
2023-06-28T11:42:33.173Z,36.69
2023-06-28T11:43:33.224Z,36.66
2023-06-28T11:44:33.640Z,36.64
2023-06-28T11:45:33.323Z,36.64
2023-06-28T11:46:33.371Z,36.64
2023-06-28T11:47:33.469Z,36.67
2023-06-28T11:48:33.466Z,36.63
2023-06-28T11:49:33.531Z,36.63
2023-06-28T11:50:33.582Z,36.58
2023-06-28T11:51:33.653Z,36.58
2023-06-28T11:52:33.682Z,36.56
2023-06-28T11:53:33.754Z,36.53
2023-06-28T11:54:33.775Z,36.52
2023-06-28T11:55:33.836Z,36.53
2023-06-28T11:56:33.899Z,36.55
2023-06-28T11:57:33.952Z,36.45
2023-06-28T11:58:33.966Z,36.55
2023-06-28T11:59:34.106Z,36.65
2023-06-28T12:00:34.062Z,36.68
2023-06-28T12:01:34.113Z,36.65
2023-06-28T12:02:34.161Z,36.66
2023-06-28T12:03:34.391Z,36.63
2023-06-28T12:04:34.927Z,36.65
2023-06-28T12:05:34.305Z,36.62
2023-06-28T12:06:34.375Z,36.62
2023-06-28T12:07:34.516Z,36.60
2023-06-28T12:08:34.446Z,36.61
2023-06-28T12:09:34.487Z,36.56
2023-06-28T12:10:34.541Z,36.59
2023-06-28T12:11:34.574Z,36.59
2023-06-28T12:12:34.643Z,36.58
2023-06-28T12:13:34.721Z,36.58
2023-06-28T12:14:34.708Z,36.55
2023-06-28T12:15:34.771Z,36.52
2023-06-28T12:16:34.860Z,36.54
2023-06-28T12:17:34.908Z,36.54
2023-06-28T12:18:34.919Z,36.52
2023-06-28T12:19:34.957Z,36.49
2023-06-28T12:20:35.006Z,36.50
2023-06-28T12:21:35.100Z,36.50
2023-06-28T12:22:35.102Z,36.53
2023-06-28T12:23:35.158Z,36.49
2023-06-28T12:24:35.219Z,36.51
2023-06-28T12:25:35.261Z,36.48
2023-06-28T12:26:35.680Z,36.54
2023-06-28T12:27:35.380Z,36.52
2023-06-28T12:28:35.429Z,36.50
2023-06-28T12:29:35.504Z,36.48
2023-06-28T12:30:35.531Z,36.50
2023-06-28T12:31:35.597Z,36.50
2023-06-28T12:32:35.644Z,36.50
2023-06-28T12:33:35.676Z,36.52
2023-06-28T12:34:35.743Z,36.51
2023-06-28T12:35:35.778Z,36.52
2023-06-28T12:36:35.835Z,36.48
2023-06-28T12:37:35.882Z,36.48
2023-06-28T12:38:35.942Z,36.46
2023-06-28T12:39:35.996Z,36.46
2023-06-28T12:40:36.070Z,36.45
2023-06-28T12:41:36.190Z,36.46
2023-06-28T12:42:36.156Z,36.46
2023-06-28T12:43:36.217Z,36.46
2023-06-28T12:44:36.263Z,36.47
2023-06-28T12:45:36.372Z,36.44
2023-06-28T12:46:36.383Z,36.45
2023-06-28T12:47:36.441Z,36.45
2023-06-28T12:48:36.497Z,36.43
2023-06-28T12:49:36.513Z,36.43
2023-06-28T12:50:36.568Z,36.42
2023-06-28T12:51:36.592Z,36.39
2023-06-28T12:52:36.682Z,36.40
2023-06-28T12:53:36.721Z,36.41